This is the latest recevied weather packets stored in our database for station/object KW6V-15. If no packets are shown the sender has not sent any weather packets the latest 10 day(s).
| Time | Temp. | Humidity | Pressure | Rain* | Wind** | Luminosity | Snow |
|---|---|---|---|---|---|---|---|
| 1777584635 | 18.33° C | 71% | 1015.3 hPa | 0 mm | - | - | - |
| 1777582841 | 18.33° C | 70% | 1015.3 hPa | 0 mm | - | - | - |
| 1777581059 | 17.78° C | 71% | 1015.5 hPa | 0 mm | - | - | - |
| 1777579277 | 18.33° C | 71% | 1015.4 hPa | 0 mm | - | - | - |
| 1777577432 | 17.22° C | 73% | 1015.6 hPa | 0 mm | - | - | - |
| 1777575624 | 17.22° C | 71% | 1015.6 hPa | 0 mm | - | - | - |
| 1777573818 | 17.22° C | 71% | 1015.5 hPa | 0 mm | - | - | - |
| 1777572067 | 16.67° C | 72% | 1015.8 hPa | 0 mm | - | - | - |
| 1777570246 | 16.11° C | 77% | 1015.7 hPa | 0 mm | - | - | - |
| 1777568571 | 14.44° C | 81% | 1015.9 hPa | 0 mm | - | - | - |
| 1777566747 | 14.44° C | 80% | 1015.9 hPa | 0 mm | - | - | - |
| 1777564952 | 12.78° C | 88% | 1016 hPa | 0 mm | - | - | - |
| 1777563035 | 11.11° C | 93% | 1016.5 hPa | 0 mm | - | - | - |
| 1777561240 | 9.44° C | 93% | 1016.5 hPa | 0 mm | - | - | - |
| 1777559436 | 8.89° C | 93% | 1016.4 hPa | 0 mm | - | - | - |
| 1777557627 | 7.22° C | 92% | 1016.6 hPa | 0 mm | - | - | - |
| 1777555869 | 8.33° C | 92% | 1016.5 hPa | 0 mm | - | - | - |
| 1777554063 | 9.44° C | 92% | 1016.4 hPa | 0 mm | - | - | - |
| 1777552265 | 8.89° C | 92% | 1016.6 hPa | 0 mm | - | - | - |
| 1777550458 | 8.89° C | 92% | 1016.7 hPa | 0 mm | - | - | - |
| 1777548646 | 8.89° C | 92% | 1016.8 hPa | 0 mm | - | - | - |
| 1777546841 | 8.89° C | 92% | 1016.8 hPa | 0 mm | - | - | - |
| 1777545078 | 8.33° C | 92% | 1016.8 hPa | 0 mm | - | - | - |
| 1777543290 | 7.78° C | 92% | 1016.9 hPa | 0 mm | - | - | - |
| 1777541481 | 6.67° C | 91% | 1017.3 hPa | 0 mm | - | - | - |
* Rain latest hour (hover to see other rain measurements)
** Current wind speed in m/s (hover to see current wind gust speed)